createdAt,value
2023-04-18T00:01:00.564Z,10.50
2023-04-18T00:03:33.569Z,10.50
2023-04-18T00:06:06.817Z,10.50
2023-04-18T00:08:40.153Z,10.40
2023-04-18T00:11:13.211Z,10.40
2023-04-18T00:13:47.577Z,10.40
2023-04-18T00:16:20.883Z,10.40
2023-04-18T00:18:53.841Z,10.40
2023-04-18T00:21:26.867Z,10.40
2023-04-18T00:23:59.807Z,10.30
2023-04-18T00:26:32.636Z,10.30
2023-04-18T00:29:05.528Z,10.30
2023-04-18T00:31:40.574Z,10.20
2023-04-18T00:34:13.523Z,10.20
2023-04-18T00:36:46.346Z,10.20
2023-04-18T00:39:19.901Z,10.20
2023-04-18T00:41:52.598Z,10.20
2023-04-18T00:44:25.727Z,10.10
2023-04-18T00:46:58.778Z,10.10
2023-04-18T00:49:32.446Z,10.00
2023-04-18T00:52:05.819Z,10.00
2023-04-18T00:54:41.521Z,9.90
2023-04-18T00:57:15.315Z,9.90
2023-04-18T00:59:48.173Z,9.80
2023-04-18T01:02:21.261Z,9.70
2023-04-18T01:04:54.309Z,9.70
2023-04-18T01:07:27.285Z,9.60
2023-04-18T01:10:03.437Z,9.60
2023-04-18T01:12:37.807Z,9.60
2023-04-18T01:15:11.700Z,9.50
2023-04-18T01:17:44.787Z,9.50
2023-04-18T01:20:21.750Z,9.60
2023-04-18T01:22:55.759Z,9.50
2023-04-18T01:25:28.783Z,9.50
2023-04-18T01:28:04.456Z,9.50
2023-04-18T01:30:37.263Z,9.50
2023-04-18T01:33:10.093Z,9.50
2023-04-18T01:35:43.150Z,9.50
2023-04-18T01:38:15.889Z,9.40
2023-04-18T01:40:49.498Z,9.40
2023-04-18T01:43:22.583Z,9.30
2023-04-18T01:45:55.369Z,9.20
2023-04-18T01:48:28.514Z,9.10
2023-04-18T01:51:01.429Z,9.00
2023-04-18T01:53:34.555Z,8.90
2023-04-18T01:56:07.697Z,8.80
2023-04-18T01:58:41.709Z,8.80
2023-04-18T02:01:15.274Z,8.80
2023-04-18T02:03:48.221Z,8.70
2023-04-18T02:06:21.460Z,8.70
2023-04-18T02:08:54.386Z,8.60
2023-04-18T02:11:30.555Z,8.50
2023-04-18T02:14:03.333Z,8.50
2023-04-18T02:16:36.656Z,8.50
2023-04-18T02:19:09.374Z,8.40
2023-04-18T02:21:42.151Z,8.40
2023-04-18T02:24:15.320Z,8.40
2023-04-18T02:26:48.447Z,8.40
2023-04-18T02:29:21.708Z,8.40
2023-04-18T02:31:54.577Z,8.40
2023-04-18T02:34:27.303Z,8.40
2023-04-18T02:37:00.569Z,8.40
2023-04-18T02:39:33.346Z,8.40
2023-04-18T02:42:06.465Z,8.40
2023-04-18T02:44:39.208Z,8.30
2023-04-18T02:47:12.100Z,8.30
2023-04-18T02:49:48.087Z,8.30
2023-04-18T02:52:21.101Z,8.30
2023-04-18T02:54:54.019Z,8.30
2023-04-18T02:57:31.558Z,8.30
2023-04-18T03:00:23.198Z,8.20
2023-04-18T03:03:22.123Z,8.20
2023-04-18T03:06:14.012Z,8.20
2023-04-18T03:08:47.524Z,8.20
2023-04-18T03:11:20.503Z,8.10
2023-04-18T03:13:53.800Z,8.10
2023-04-18T03:16:28.567Z,8.10
2023-04-18T03:19:01.509Z,8.10
2023-04-18T03:21:35.250Z,8.00
2023-04-18T03:24:09.231Z,8.00
2023-04-18T03:26:43.084Z,8.00
2023-04-18T03:29:16.230Z,8.00
2023-04-18T03:31:51.536Z,7.90
2023-04-18T03:34:24.570Z,7.90
2023-04-18T03:36:59.249Z,7.90
2023-04-18T03:39:34.591Z,7.90
2023-04-18T03:42:07.638Z,7.80
2023-04-18T03:44:41.077Z,7.80
2023-04-18T03:47:14.676Z,7.80
2023-04-18T03:49:50.227Z,7.80
2023-04-18T03:52:23.784Z,7.80
2023-04-18T03:54:56.843Z,7.80
2023-04-18T03:57:34.418Z,7.80
2023-04-18T04:00:10.558Z,7.70
2023-04-18T04:02:49.191Z,7.70
2023-04-18T04:05:26.559Z,7.70
2023-04-18T04:07:59.610Z,7.60
2023-04-18T04:10:32.516Z,7.60
2023-04-18T04:13:05.349Z,7.60
2023-04-18T04:15:41.034Z,7.60
2023-04-18T04:18:16.476Z,7.60
2023-04-18T04:20:50.799Z,7.60
2023-04-18T04:23:42.669Z,7.60
2023-04-18T04:26:19.333Z,7.60
2023-04-18T04:28:59.359Z,7.60
2023-04-18T04:31:34.579Z,7.60
2023-04-18T04:34:09.027Z,7.60
2023-04-18T04:36:43.057Z,7.60
2023-04-18T04:39:18.918Z,7.60
2023-04-18T04:42:12.226Z,7.50
2023-04-18T04:44:55.698Z,7.50
2023-04-18T04:47:29.153Z,7.40
2023-04-18T04:50:02.490Z,7.30
2023-04-18T04:52:37.104Z,7.30
2023-04-18T04:55:10.824Z,7.30
2023-04-18T04:57:45.115Z,7.40
2023-04-18T05:00:35.443Z,7.30
2023-04-18T05:03:08.633Z,7.30
2023-04-18T05:05:41.864Z,7.20
2023-04-18T05:08:15.514Z,7.10
2023-04-18T05:10:49.948Z,7.10
2023-04-18T05:13:22.842Z,7.10
2023-04-18T05:15:55.729Z,7.20
2023-04-18T05:18:28.677Z,7.20
2023-04-18T05:21:01.629Z,7.30
2023-04-18T05:23:37.929Z,7.30
2023-04-18T05:26:10.742Z,7.30
2023-04-18T05:28:43.767Z,7.40
2023-04-18T05:31:16.719Z,7.40
2023-04-18T05:33:49.878Z,7.40
2023-04-18T05:36:23.051Z,7.50
2023-04-18T05:38:56.270Z,7.40
2023-04-18T05:41:29.258Z,7.50
2023-04-18T05:44:05.799Z,7.50
2023-04-18T05:46:39.449Z,7.40
2023-04-18T05:49:12.778Z,7.40
2023-04-18T05:51:46.414Z,7.40
2023-04-18T05:54:21.641Z,7.40
2023-04-18T05:56:55.056Z,7.30
2023-04-18T05:59:28.075Z,7.40
2023-04-18T06:02:01.008Z,7.40
2023-04-18T06:04:33.866Z,7.40
2023-04-18T06:07:07.249Z,7.40
2023-04-18T06:09:40.518Z,7.40
2023-04-18T06:12:13.430Z,7.50
2023-04-18T06:14:46.162Z,7.60
2023-04-18T06:17:19.291Z,7.70
2023-04-18T06:19:52.087Z,7.80
2023-04-18T06:22:25.016Z,7.90
2023-04-18T06:24:57.855Z,7.90
2023-04-18T06:27:31.806Z,7.90
2023-04-18T06:30:05.924Z,8.00
2023-04-18T06:32:38.710Z,8.10
2023-04-18T06:35:11.505Z,8.20
2023-04-18T06:37:45.158Z,8.30
2023-04-18T06:40:18.147Z,8.60
2023-04-18T06:42:51.084Z,8.90
2023-04-18T06:45:24.062Z,9.00
2023-04-18T06:47:59.671Z,9.00
2023-04-18T06:50:32.479Z,8.90
2023-04-18T06:53:05.420Z,8.90
2023-04-18T06:55:38.295Z,8.90
2023-04-18T06:58:13.957Z,8.80
2023-04-18T07:00:51.662Z,8.80
2023-04-18T07:03:24.927Z,8.80
2023-04-18T07:05:57.929Z,9.00
2023-04-18T07:08:30.988Z,9.10
2023-04-18T07:11:04.072Z,9.20
2023-04-18T07:13:36.844Z,9.10
2023-04-18T07:16:09.738Z,9.20
2023-04-18T07:18:42.981Z,9.20
2023-04-18T07:21:16.064Z,9.20
2023-04-18T07:23:49.217Z,9.20
2023-04-18T07:26:22.138Z,9.20
2023-04-18T07:28:55.035Z,9.20
2023-04-18T07:31:28.836Z,9.20
2023-04-18T07:34:01.726Z,9.20
2023-04-18T07:36:34.786Z,9.30
2023-04-18T07:39:07.835Z,9.30
2023-04-18T07:41:40.686Z,9.30
2023-04-18T07:44:13.547Z,9.30
2023-04-18T07:46:47.036Z,9.20
2023-04-18T07:49:20.141Z,9.20
2023-04-18T07:51:53.062Z,9.10
2023-04-18T07:54:25.809Z,9.20
2023-04-18T07:56:59.566Z,9.20
2023-04-18T07:59:32.668Z,9.30
2023-04-18T08:02:05.814Z,9.40
2023-04-18T08:04:38.796Z,9.50
2023-04-18T08:07:11.841Z,9.70
2023-04-18T08:09:45.036Z,9.90
2023-04-18T08:12:17.919Z,10.00
2023-04-18T08:14:51.165Z,10.10
2023-04-18T08:17:24.549Z,10.20
2023-04-18T08:19:57.856Z,10.30
2023-04-18T08:22:30.727Z,10.40
2023-04-18T08:25:05.514Z,10.30
2023-04-18T08:27:39.164Z,10.50
2023-04-18T08:30:14.074Z,10.70
2023-04-18T08:32:47.066Z,10.70
2023-04-18T08:35:20.012Z,10.50
2023-04-18T08:37:52.841Z,10.40
2023-04-18T08:40:25.641Z,10.50
2023-04-18T08:43:02.357Z,10.80
2023-04-18T08:45:36.620Z,11.00
2023-04-18T08:48:17.660Z,11.00
2023-04-18T08:50:51.260Z,10.90
2023-04-18T08:53:24.390Z,10.90
2023-04-18T08:55:58.490Z,10.90
2023-04-18T08:58:32.676Z,10.80
2023-04-18T09:01:07.465Z,10.70
2023-04-18T09:03:42.258Z,10.60
2023-04-18T09:06:20.329Z,10.60
2023-04-18T09:08:59.045Z,10.80
2023-04-18T09:11:34.490Z,10.90
2023-04-18T09:14:07.901Z,11.10
2023-04-18T09:16:50.464Z,11.20
2023-04-18T09:19:24.022Z,11.40
2023-04-18T09:22:02.464Z,11.50
2023-04-18T09:24:35.815Z,11.60
2023-04-18T09:27:14.270Z,11.80
2023-04-18T09:29:49.636Z,11.80
2023-04-18T09:32:27.371Z,11.70
2023-04-18T09:35:05.372Z,11.70
2023-04-18T09:37:38.414Z,11.80
2023-04-18T09:40:19.148Z,11.80
2023-04-18T09:42:56.666Z,11.90
2023-04-18T09:45:29.756Z,11.90
2023-04-18T09:48:04.049Z,12.00
2023-04-18T09:50:40.003Z,12.00
2023-04-18T09:53:17.304Z,12.10
2023-04-18T09:55:55.581Z,12.10
2023-04-18T09:58:34.330Z,12.10
2023-04-18T10:01:07.966Z,12.10
2023-04-18T10:03:47.899Z,11.80
2023-04-18T10:06:21.132Z,11.60
2023-04-18T10:08:55.262Z,11.60
2023-04-18T10:11:29.808Z,12.00
2023-04-18T10:14:15.346Z,12.30
2023-04-18T10:16:50.411Z,12.10
2023-04-18T10:19:46.069Z,12.10
2023-04-18T10:22:27.312Z,12.30
2023-04-18T10:25:00.306Z,12.20
2023-04-18T10:27:48.910Z,12.20
2023-04-18T10:30:41.682Z,12.30
2023-04-18T10:33:30.881Z,12.60
2023-04-18T10:36:13.870Z,12.90
2023-04-18T10:38:55.361Z,13.00
2023-04-18T10:41:33.604Z,13.10
2023-04-18T10:44:16.278Z,13.30
2023-04-18T10:46:53.406Z,13.50
2023-04-18T10:49:53.466Z,13.50
2023-04-18T10:52:27.429Z,13.70
2023-04-18T10:55:18.573Z,13.70
2023-04-18T10:57:51.928Z,13.80
2023-04-18T11:00:25.463Z,13.70
2023-04-18T11:03:00.108Z,13.60
2023-04-18T11:05:33.231Z,13.80
2023-04-18T11:08:22.827Z,13.80
2023-04-18T11:11:02.075Z,13.70
2023-04-18T11:13:36.986Z,13.90
2023-04-18T11:16:10.233Z,13.90
2023-04-18T11:18:43.184Z,13.50
2023-04-18T11:21:16.558Z,13.50
2023-04-18T11:23:49.916Z,13.90
2023-04-18T11:26:26.836Z,14.00
2023-04-18T11:29:00.087Z,14.20
2023-04-18T11:31:33.277Z,14.30
2023-04-18T11:34:06.088Z,14.40
2023-04-18T11:36:39.234Z,14.50
2023-04-18T11:39:12.210Z,14.20
2023-04-18T11:41:50.357Z,14.20
2023-04-18T11:44:24.741Z,14.20
2023-04-18T11:46:57.560Z,14.60
2023-04-18T11:49:33.501Z,14.40
2023-04-18T11:52:13.394Z,14.10
2023-04-18T11:54:46.318Z,13.80
2023-04-18T11:57:24.673Z,13.60
2023-04-18T11:59:59.768Z,13.40
2023-04-18T12:02:45.671Z,13.30
2023-04-18T12:05:29.430Z,13.20
2023-04-18T12:08:11.994Z,12.80
2023-04-18T12:10:50.642Z,12.60
2023-04-18T12:13:31.702Z,12.50
2023-04-18T12:16:05.324Z,12.50
2023-04-18T12:18:42.046Z,12.50
2023-04-18T12:21:18.303Z,12.40
2023-04-18T12:23:51.703Z,12.50
2023-04-18T12:26:24.654Z,12.70
2023-04-18T12:29:00.806Z,12.80
2023-04-18T12:31:33.759Z,12.80
2023-04-18T12:34:07.006Z,13.00
2023-04-18T12:36:39.710Z,13.20
2023-04-18T12:39:12.757Z,13.10
2023-04-18T12:41:46.373Z,13.10
2023-04-18T12:44:20.901Z,13.00
2023-04-18T12:46:53.753Z,13.00
2023-04-18T12:49:26.592Z,12.90
2023-04-18T12:51:59.568Z,12.90
2023-04-18T12:54:32.538Z,13.10
2023-04-18T12:57:05.426Z,13.20
2023-04-18T12:59:38.356Z,13.10
2023-04-18T13:02:11.645Z,13.10
2023-04-18T13:04:44.689Z,13.00
2023-04-18T13:07:18.791Z,12.90
2023-04-18T13:09:51.493Z,12.80
2023-04-18T13:12:24.390Z,12.70
2023-04-18T13:14:57.707Z,12.80
2023-04-18T13:17:31.457Z,12.80
2023-04-18T13:20:10.780Z,12.80
2023-04-18T13:22:44.971Z,12.80
2023-04-18T13:25:18.668Z,12.80
2023-04-18T13:27:52.197Z,12.70
2023-04-18T13:30:25.001Z,12.70
2023-04-18T13:32:57.979Z,12.80
2023-04-18T13:35:30.831Z,12.80
2023-04-18T13:38:03.931Z,12.80
2023-04-18T13:40:38.870Z,12.80
2023-04-18T13:43:13.407Z,12.80
2023-04-18T13:45:46.392Z,12.90
2023-04-18T13:48:19.478Z,12.80
2023-04-18T13:50:52.629Z,12.80
2023-04-18T13:53:25.480Z,12.80
2023-04-18T13:55:58.672Z,12.90
2023-04-18T13:58:31.523Z,12.90
2023-04-18T14:01:04.350Z,12.80
2023-04-18T14:03:38.464Z,12.70
2023-04-18T14:06:12.434Z,12.60
2023-04-18T14:08:45.633Z,12.60
2023-04-18T14:11:19.237Z,12.50
2023-04-18T14:13:52.210Z,12.40
2023-04-18T14:16:25.006Z,12.40
2023-04-18T14:18:58.280Z,12.40
2023-04-18T14:21:32.406Z,12.40
2023-04-18T14:24:08.948Z,12.40
2023-04-18T14:26:42.118Z,12.40
2023-04-18T14:29:18.346Z,12.50
2023-04-18T14:31:51.229Z,12.60
2023-04-18T14:34:24.085Z,12.60
2023-04-18T14:36:56.788Z,12.60
2023-04-18T14:39:29.632Z,12.70
2023-04-18T14:42:02.491Z,12.70
2023-04-18T14:44:35.521Z,12.70
2023-04-18T14:47:08.736Z,12.70
2023-04-18T14:49:41.877Z,12.70
2023-04-18T14:52:15.701Z,12.70
2023-04-18T14:54:48.470Z,12.70
2023-04-18T14:57:21.341Z,12.80
2023-04-18T14:59:55.014Z,12.70
2023-04-18T15:02:28.266Z,12.80
2023-04-18T15:05:01.513Z,12.80
2023-04-18T15:07:36.069Z,12.90
2023-04-18T15:10:12.519Z,12.90
2023-04-18T15:12:47.001Z,13.00
2023-04-18T15:15:20.275Z,13.10
2023-04-18T15:17:53.207Z,13.10
2023-04-18T15:20:26.373Z,13.10
2023-04-18T15:22:59.118Z,13.10
2023-04-18T15:25:31.900Z,13.10
2023-04-18T15:28:05.985Z,13.10
2023-04-18T15:30:39.215Z,13.10
2023-04-18T15:33:13.188Z,13.10
2023-04-18T15:35:47.788Z,13.10
2023-04-18T15:38:20.749Z,13.10
2023-04-18T15:40:53.708Z,13.00
2023-04-18T15:43:26.770Z,13.00
2023-04-18T15:45:59.511Z,13.00
2023-04-18T15:48:34.212Z,13.00
2023-04-18T15:51:06.961Z,13.00
2023-04-18T15:53:39.837Z,13.00
2023-04-18T15:56:12.824Z,13.10
2023-04-18T15:58:45.762Z,13.10
2023-04-18T16:01:18.819Z,13.10
2023-04-18T16:03:51.908Z,13.10
2023-04-18T16:06:24.772Z,13.10
2023-04-18T16:08:58.196Z,13.20
2023-04-18T16:11:31.066Z,13.20
2023-04-18T16:14:04.106Z,13.20
2023-04-18T16:16:37.224Z,13.20
2023-04-18T16:19:10.201Z,13.20
2023-04-18T16:21:43.152Z,13.20
2023-04-18T16:24:16.687Z,13.20
2023-04-18T16:26:49.636Z,13.20
2023-04-18T16:29:22.657Z,13.20
2023-04-18T16:31:55.813Z,13.20
2023-04-18T16:34:28.493Z,13.20
2023-04-18T16:37:01.657Z,13.20
2023-04-18T16:39:34.739Z,13.20
2023-04-18T16:42:07.699Z,13.20
2023-04-18T16:44:40.688Z,13.20
2023-04-18T16:47:14.153Z,13.20
2023-04-18T16:49:47.837Z,13.20
2023-04-18T16:52:21.356Z,13.20
2023-04-18T16:54:54.340Z,13.20
2023-04-18T16:57:27.051Z,13.20
2023-04-18T17:00:02.708Z,13.10
2023-04-18T17:02:36.068Z,13.10
2023-04-18T17:05:12.112Z,13.10
2023-04-18T17:07:45.959Z,13.10
2023-04-18T17:10:19.493Z,13.10
2023-04-18T17:12:52.952Z,13.10
2023-04-18T17:15:29.770Z,13.10
2023-04-18T17:18:02.931Z,13.10
2023-04-18T17:20:36.137Z,13.10
2023-04-18T17:23:10.349Z,13.10
2023-04-18T17:25:43.269Z,13.10
2023-04-18T17:28:16.811Z,13.10
2023-04-18T17:30:50.411Z,13.10
2023-04-18T17:33:23.282Z,13.10
2023-04-18T17:35:56.171Z,13.10
2023-04-18T17:38:29.008Z,13.10
2023-04-18T17:41:04.519Z,13.10
2023-04-18T17:43:37.451Z,13.10
2023-04-18T17:46:10.346Z,13.10
2023-04-18T17:48:43.337Z,13.10
2023-04-18T17:51:16.575Z,13.10
2023-04-18T17:53:50.081Z,13.10
2023-04-18T17:56:23.042Z,13.00
2023-04-18T17:58:56.778Z,13.00
2023-04-18T18:01:30.563Z,13.00
2023-04-18T18:04:03.395Z,13.00
2023-04-18T18:06:36.391Z,13.00
2023-04-18T18:09:09.174Z,13.00
2023-04-18T18:11:42.535Z,13.00
2023-04-18T18:14:16.797Z,13.00
2023-04-18T18:16:49.868Z,13.00
2023-04-18T18:19:23.059Z,13.00
2023-04-18T18:21:55.784Z,13.00
2023-04-18T18:24:28.944Z,13.00
2023-04-18T18:27:01.879Z,12.90
2023-04-18T18:29:34.873Z,12.90
2023-04-18T18:32:07.637Z,12.90
2023-04-18T18:34:40.329Z,12.90
2023-04-18T18:37:13.220Z,12.90
2023-04-18T18:39:46.108Z,12.90
2023-04-18T18:42:18.998Z,12.90
2023-04-18T18:44:51.962Z,12.90
2023-04-18T18:47:24.900Z,12.90
2023-04-18T18:49:57.695Z,12.90
2023-04-18T18:52:31.059Z,12.90
2023-04-18T18:55:04.668Z,12.80
2023-04-18T18:57:37.829Z,12.80
2023-04-18T19:00:11.332Z,12.80
2023-04-18T19:02:44.240Z,12.80
2023-04-18T19:05:17.853Z,12.80
2023-04-18T19:07:51.732Z,12.80
2023-04-18T19:10:24.658Z,12.80
2023-04-18T19:12:58.181Z,12.70
2023-04-18T19:15:31.105Z,12.70
2023-04-18T19:18:04.365Z,12.70
2023-04-18T19:20:39.060Z,12.70
2023-04-18T19:23:11.835Z,12.70
2023-04-18T19:25:45.481Z,12.70
2023-04-18T19:28:18.571Z,12.60
2023-04-18T19:30:53.082Z,12.60
2023-04-18T19:33:26.708Z,12.60
2023-04-18T19:35:59.637Z,12.60
2023-04-18T19:38:34.187Z,12.60
2023-04-18T19:41:06.901Z,12.60
2023-04-18T19:43:40.885Z,12.60
2023-04-18T19:46:13.599Z,12.60
2023-04-18T19:48:46.492Z,12.60
2023-04-18T19:51:19.380Z,12.50
2023-04-18T19:53:52.141Z,12.50
2023-04-18T19:56:25.462Z,12.50
2023-04-18T19:58:58.554Z,12.50
2023-04-18T20:01:31.542Z,12.50
2023-04-18T20:04:05.140Z,12.50
2023-04-18T20:06:39.232Z,12.40
2023-04-18T20:09:16.549Z,12.40
2023-04-18T20:11:50.159Z,12.40
2023-04-18T20:14:22.902Z,12.40
2023-04-18T20:16:56.737Z,12.40
2023-04-18T20:19:29.851Z,12.30
2023-04-18T20:22:03.285Z,12.30
2023-04-18T20:24:39.433Z,12.30
2023-04-18T20:27:12.752Z,12.30
2023-04-18T20:29:46.175Z,12.20
2023-04-18T20:32:20.066Z,12.20
2023-04-18T20:34:53.645Z,12.20
2023-04-18T20:37:27.665Z,12.20
2023-04-18T20:40:02.805Z,12.10
2023-04-18T20:42:36.896Z,12.10
2023-04-18T20:45:11.326Z,12.10
2023-04-18T20:47:44.325Z,12.00
2023-04-18T20:50:18.303Z,12.00
2023-04-18T20:52:51.177Z,11.90
2023-04-18T20:55:23.966Z,11.80
2023-04-18T20:57:57.151Z,11.70
2023-04-18T21:00:29.948Z,11.60
2023-04-18T21:03:04.457Z,11.50
2023-04-18T21:05:37.556Z,11.50
2023-04-18T21:08:11.212Z,11.40
2023-04-18T21:10:44.010Z,11.30
2023-04-18T21:13:16.932Z,11.20
2023-04-18T21:15:51.910Z,11.10
2023-04-18T21:18:25.030Z,11.00
2023-04-18T21:20:58.221Z,11.00
2023-04-18T21:23:30.939Z,11.00
2023-04-18T21:26:03.750Z,10.90
2023-04-18T21:28:52.557Z,10.90
2023-04-18T21:31:26.640Z,10.90
2023-04-18T21:34:01.682Z,10.90
2023-04-18T21:36:34.867Z,10.90
2023-04-18T21:39:08.453Z,10.80
2023-04-18T21:41:41.564Z,10.70
2023-04-18T21:44:14.958Z,10.70
2023-04-18T21:46:47.732Z,10.70
2023-04-18T21:49:20.650Z,10.60
2023-04-18T21:51:55.089Z,10.60
2023-04-18T21:54:27.806Z,10.60
2023-04-18T21:57:00.820Z,10.60
2023-04-18T21:59:33.591Z,10.50
2023-04-18T22:02:06.446Z,10.50
2023-04-18T22:04:42.573Z,10.40
2023-04-18T22:07:18.775Z,10.40
2023-04-18T22:09:51.884Z,10.40
2023-04-18T22:12:24.625Z,10.30
2023-04-18T22:14:58.093Z,10.30
2023-04-18T22:17:30.869Z,10.30
2023-04-18T22:20:08.378Z,10.30
2023-04-18T22:22:41.842Z,10.30
2023-04-18T22:25:14.936Z,10.30
2023-04-18T22:27:47.628Z,10.20
2023-04-18T22:30:21.221Z,10.20
2023-04-18T22:32:54.267Z,10.10
2023-04-18T22:35:27.469Z,10.10
2023-04-18T22:38:00.212Z,10.10
2023-04-18T22:40:33.226Z,10.10
2023-04-18T22:43:06.150Z,10.10
2023-04-18T22:45:38.943Z,10.00
2023-04-18T22:48:13.529Z,10.00
2023-04-18T22:50:47.283Z,10.00
2023-04-18T22:53:20.355Z,10.00
2023-04-18T22:55:53.273Z,10.00
2023-04-18T22:58:26.112Z,10.00
2023-04-18T23:00:59.940Z,9.90
2023-04-18T23:03:34.348Z,10.00
2023-04-18T23:06:08.444Z,9.90
2023-04-18T23:08:41.208Z,9.90
2023-04-18T23:11:14.111Z,9.80
2023-04-18T23:13:46.883Z,9.80
2023-04-18T23:16:19.770Z,9.80
2023-04-18T23:18:52.701Z,9.70
2023-04-18T23:21:26.318Z,9.70
2023-04-18T23:23:59.911Z,9.70
2023-04-18T23:26:32.754Z,9.70
2023-04-18T23:29:05.544Z,9.70
2023-04-18T23:31:38.365Z,9.60
2023-04-18T23:34:11.298Z,9.60
2023-04-18T23:36:44.260Z,9.50
2023-04-18T23:39:18.683Z,9.50
2023-04-18T23:41:51.884Z,9.50
2023-04-18T23:44:24.856Z,9.40
2023-04-18T23:46:58.775Z,9.50
2023-04-18T23:49:31.543Z,9.40
2023-04-18T23:52:04.734Z,9.40
2023-04-18T23:54:37.624Z,9.40
2023-04-18T23:57:10.544Z,9.40
2023-04-18T23:59:43.468Z,9.40
